Time;durP1;ratioP1;P1;durP2;ratioP2;P2;SDS_P1;SDS_P2;PMS_P1;PMS_P2;Temp;Humidity;BMP_temperature;BMP_pressure;BME280_temperature;BME280_humidity;BME280_pressure;Samples;Min_cycle;Max_cycle;Signal;HPM_P1;HPM_P2
2022/05/12 00:01:48;;;;;;;10.27;9.13;;;;;;;18.62;77.62;97925.25;4130698;28;21006;-83
2022/05/12 00:03:51;;;;;;;10.70;9.00;;;;;;;18.60;78.92;97927.25;4106639;28;21046;-83
2022/05/12 00:05:55;;;;;;;10.20;9.17;;;;;;;18.61;78.52;97930.69;4122036;28;20630;-83
2022/05/12 00:07:58;;;;;;;10.83;9.73;;;;;;;18.59;78.43;97930.03;4124997;28;20643;-83
2022/05/12 00:10:02;;;;;;;10.37;9.37;;;;;;;18.56;78.79;97925.88;4106979;28;20651;-82
2022/05/12 00:12:05;;;;;;;10.50;8.87;;;;;;;18.56;79.67;97936.47;4124136;28;20635;-83
2022/05/12 00:14:09;;;;;;;12.20;8.80;;;;;;;18.54;78.16;97937.63;4124812;28;20639;-82
2022/05/12 00:16:12;;;;;;;9.90;8.20;;;;;;;18.52;78.33;97926.34;4135956;28;21208;-83
2022/05/12 00:18:17;;;;;;;9.40;8.33;;;;;;;18.51;78.61;97941.38;4137647;28;20662;-83
2022/05/12 00:20:22;;;;;;;14.57;9.00;;;;;;;18.46;78.67;97930.47;4105036;28;20625;-83
2022/05/12 00:22:26;;;;;;;10.73;9.47;;;;;;;18.43;79.10;97937.88;4123138;28;20750;-83
2022/05/12 00:24:29;;;;;;;11.70;9.50;;;;;;;18.40;79.07;97932.06;4123063;28;20631;-83
2022/05/12 00:26:35;;;;;;;13.10;9.53;;;;;;;18.35;79.63;97923.81;4124456;28;20652;-82
2022/05/12 00:28:38;;;;;;;11.10;9.97;;;;;;;18.32;78.44;97932.03;4123776;28;21247;-83
2022/05/12 00:30:42;;;;;;;9.47;8.47;;;;;;;18.32;78.39;97935.50;4123802;28;20663;-83
2022/05/12 00:32:46;;;;;;;10.57;9.47;;;;;;;18.35;78.46;97942.28;4125210;28;20635;-83
2022/05/12 00:34:51;;;;;;;10.30;9.20;;;;;;;18.38;77.70;97942.78;4118196;28;20623;-83
2022/05/12 00:36:55;;;;;;;10.83;9.73;;;;;;;18.41;78.27;97941.66;4124727;28;20752;-83
2022/05/12 00:39:01;;;;;;;9.03;8.13;;;;;;;18.44;78.02;97945.63;4121033;28;20718;-83
2022/05/12 00:41:04;;;;;;;9.57;8.67;;;;;;;18.44;77.37;97950.91;4119528;28;20638;-83
2022/05/12 00:43:09;;;;;;;8.50;7.70;;;;;;;18.46;77.94;97956.91;4120679;28;20631;-83
2022/05/12 00:45:13;;;;;;;9.53;8.40;;;;;;;18.48;78.14;97954.91;4140419;28;21383;-83
2022/05/12 00:47:21;;;;;;;9.23;8.23;;;;;;;18.46;78.13;97950.75;4125658;28;20655;-83
2022/05/12 00:49:28;;;;;;;8.83;7.93;;;;;;;18.42;77.54;97952.91;4137163;28;20650;-82
2022/05/12 00:51:34;;;;;;;10.07;9.07;;;;;;;18.40;78.33;97955.84;4122133;28;20666;-83
2022/05/12 00:53:39;;;;;;;10.03;8.57;;;;;;;18.40;77.31;97961.94;4138382;28;20722;-82
2022/05/12 00:55:43;;;;;;;8.97;8.10;;;;;;;18.33;77.51;97957.44;4121318;28;21238;-83
2022/05/12 00:57:51;;;;;;;11.40;8.83;;;;;;;18.29;78.62;97964.03;4122562;28;20644;-83
2022/05/12 00:59:54;;;;;;;9.60;8.67;;;;;;;18.28;77.90;97968.50;4122539;28;20742;-83
2022/05/12 01:01:58;;;;;;;10.57;8.70;;;;;;;18.25;78.00;97967.97;4121806;28;20627;-83
2022/05/12 01:04:05;;;;;;;10.60;8.90;;;;;;;18.24;78.40;97971.59;4140755;28;21022;-83
2022/05/12 01:06:09;;;;;;;9.67;8.70;;;;;;;18.21;77.38;97961.34;4120219;28;20672;-83
2022/05/12 01:08:15;;;;;;;13.33;9.10;;;;;;;18.20;77.52;97959.69;4119156;28;20695;-83
2022/05/12 01:10:19;;;;;;;11.03;8.67;;;;;;;18.18;78.24;97969.59;4124199;28;20651;-83
2022/05/12 01:12:23;;;;;;;9.20;8.20;;;;;;;18.13;77.71;97970.03;4137889;28;21266;-83
2022/05/12 01:14:26;;;;;;;9.50;8.50;;;;;;;18.10;78.51;97977.38;4141297;28;20631;-83
2022/05/12 01:16:39;;;;;;;9.40;8.20;;;;;;;18.05;78.14;97982.31;4121215;28;20706;-83
2022/05/12 01:18:42;;;;;;;10.83;8.50;;;;;;;18.05;77.88;97984.94;4122715;28;21077;-83
2022/05/12 01:20:46;;;;;;;10.10;8.90;;;;;;;18.03;78.90;97981.66;4136245;28;21111;-83
2022/05/12 01:22:53;;;;;;;9.57;8.20;;;;;;;18.00;78.86;97989.88;4120092;28;20646;-83
2022/05/12 01:24:59;;;;;;;9.73;7.77;;;;;;;17.93;78.41;97989.63;4121948;28;21407;-83
2022/05/12 01:29:21;;;;;;;14.23;8.80;;;;;;;17.92;78.44;97985.34;4122676;28;20651;-83
2022/05/12 01:31:25;;;;;;;10.00;8.80;;;;;;;17.91;78.84;97990.78;4120908;28;21166;-83
2022/05/12 01:33:29;;;;;;;10.20;8.53;;;;;;;17.90;78.74;97993.56;4136509;28;20638;-83
2022/05/12 01:35:32;;;;;;;12.50;8.67;;;;;;;17.88;79.53;97985.81;4106560;28;20699;-83
2022/05/12 01:37:38;;;;;;;9.80;8.63;;;;;;;17.91;77.62;97995.25;4135508;28;21081;-83
2022/05/12 01:39:42;;;;;;;8.67;7.43;;;;;;;17.92;75.42;97990.63;4135657;28;20625;-83
2022/05/12 01:41:48;;;;;;;8.90;7.97;;;;;;;18.02;75.25;97998.44;4119081;28;21086;-82
2022/05/12 01:43:51;;;;;;;11.37;8.30;;;;;;;18.07;76.91;98001.44;4122369;28;21082;-83
2022/05/12 01:45:55;;;;;;;8.00;7.20;;;;;;;18.06;75.14;98005.09;4123726;28;20727;-83
2022/05/12 01:47:58;;;;;;;9.20;7.10;;;;;;;18.06;74.93;98013.00;4134389;28;20656;-83
2022/05/12 01:50:02;;;;;;;7.70;6.90;;;;;;;18.08;74.32;98008.41;4135296;28;20999;-83
2022/05/12 01:52:07;;;;;;;8.10;6.73;;;;;;;18.10;75.46;98007.28;4119419;28;20659;-83
2022/05/12 01:54:10;;;;;;;9.00;6.77;;;;;;;18.07;75.24;98015.50;4123164;28;20647;-83
2022/05/12 01:56:14;;;;;;;12.77;8.00;;;;;;;17.92;75.99;98014.38;4121956;28;20713;-83
2022/05/12 01:58:20;;;;;;;10.27;7.93;;;;;;;17.90;75.71;98022.59;4123556;28;20750;-83
2022/05/12 02:00:26;;;;;;;8.10;7.30;;;;;;;17.88;75.87;98028.03;4125077;28;20754;-83
2022/05/12 02:02:29;;;;;;;9.00;6.93;;;;;;;17.88;76.35;98020.13;4122965;28;20693;-83
2022/05/12 02:04:33;;;;;;;8.87;6.80;;;;;;;17.87;76.02;98031.63;4121028;28;20643;-83
2022/05/12 02:06:36;;;;;;;8.43;6.80;;;;;;;17.81;76.21;98026.97;4121334;28;20659;-83
2022/05/12 02:08:40;;;;;;;8.30;7.50;;;;;;;17.81;75.91;98034.88;4122421;28;20667;-83
2022/05/12 02:10:45;;;;;;;8.80;7.70;;;;;;;17.81;76.18;98040.16;4121256;28;20630;-83
2022/05/12 02:12:49;;;;;;;8.13;7.37;;;;;;;17.85;74.83;98032.78;4123360;28;21461;-82
2022/05/12 02:14:56;;;;;;;8.00;7.20;;;;;;;17.85;75.84;98036.25;4140783;28;20693;-82
2022/05/12 02:17:00;;;;;;;8.00;7.07;;;;;;;17.86;76.40;98034.44;4136342;28;20646;-83
2022/05/12 02:19:05;;;;;;;9.10;8.20;;;;;;;17.80;76.92;98046.44;4116430;28;20630;-83
2022/05/12 02:21:08;;;;;;;8.37;7.30;;;;;;;17.74;76.68;98048.81;4121304;28;20698;-83
2022/05/12 02:23:12;;;;;;;8.60;6.90;;;;;;;17.66;77.51;98046.94;4134996;28;20709;-83
2022/05/12 02:25:16;;;;;;;8.63;6.90;;;;;;;17.66;77.38;98054.03;4122234;28;20716;-83
2022/05/12 02:27:20;;;;;;;8.03;7.23;;;;;;;17.67;76.66;98055.69;4104188;28;20621;-83
2022/05/12 02:29:23;;;;;;;8.20;7.10;;;;;;;17.71;76.68;98043.84;4118158;28;20745;-83
2022/05/12 02:31:28;;;;;;;8.37;7.47;;;;;;;17.75;76.71;98053.13;4119817;28;20623;-83
2022/05/12 02:33:32;;;;;;;8.57;7.67;;;;;;;17.75;76.40;98061.88;4105323;28;20632;-83
2022/05/12 02:35:35;;;;;;;8.20;7.37;;;;;;;17.70;77.12;98064.13;4120436;28;21036;-83
2022/05/12 02:37:39;;;;;;;8.20;7.40;;;;;;;17.69;77.22;98065.09;4119456;28;20737;-83
2022/05/12 02:39:43;;;;;;;8.47;6.93;;;;;;;17.71;76.33;98065.78;4135441;28;20631;-83
2022/05/12 02:41:46;;;;;;;7.10;6.40;;;;;;;17.75;75.46;98061.88;4117227;28;20643;-83
2022/05/12 02:43:49;;;;;;;7.90;7.10;;;;;;;17.81;76.54;98069.19;4121762;28;21210;-83
2022/05/12 02:45:54;;;;;;;8.40;7.03;;;;;;;17.81;76.53;98069.19;4105150;28;20712;-83
2022/05/12 02:47:59;;;;;;;7.50;6.80;;;;;;;17.78;76.42;98079.22;4119185;28;20668;-83
2022/05/12 02:50:06;;;;;;;8.40;7.13;;;;;;;17.75;76.13;98075.06;4116611;28;23108;-83
2022/05/12 02:52:09;;;;;;;8.77;6.57;;;;;;;17.75;76.68;98084.78;4119147;28;20744;-83
2022/05/12 02:54:13;;;;;;;8.40;7.60;;;;;;;17.74;76.54;98081.34;4121809;28;20642;-83
2022/05/12 02:56:16;;;;;;;8.87;5.93;;;;;;;17.75;74.63;98088.25;4122981;28;21061;-83
2022/05/12 02:58:20;;;;;;;7.00;6.30;;;;;;;17.78;74.45;98087.13;4121119;28;20631;-83
2022/05/12 03:00:23;;;;;;;7.50;6.27;;;;;;;17.79;74.40;98084.34;4118415;28;21461;-83
2022/05/12 03:02:26;;;;;;;6.90;6.23;;;;;;;17.83;74.58;98090.16;4122499;28;21215;-83
2022/05/12 03:04:31;;;;;;;7.10;6.33;;;;;;;17.83;76.26;98087.50;4119768;28;20647;-83
2022/05/12 03:06:34;;;;;;;6.57;5.97;;;;;;;17.76;76.39;98097.84;4122203;28;20639;-83
2022/05/12 03:08:42;;;;;;;8.63;5.97;;;;;;;17.71;77.49;98088.69;4121573;28;21277;-83
2022/05/12 03:10:48;;;;;;;6.80;6.10;;;;;;;17.72;76.14;98096.47;4103760;28;20708;-83
2022/05/12 03:12:52;;;;;;;8.20;5.90;;;;;;;17.75;76.62;98096.16;4122140;28;20643;-82
2022/05/12 03:14:55;;;;;;;6.90;6.20;;;;;;;17.82;75.82;98091.16;4107357;28;21802;-83
2022/05/12 03:16:59;;;;;;;6.90;5.80;;;;;;;17.88;76.23;98104.56;4137817;28;20631;-83
2022/05/12 03:19:03;;;;;;;6.93;5.93;;;;;;;17.92;76.06;98101.47;4135056;28;20630;-83
2022/05/12 03:21:09;;;;;;;6.20;5.60;;;;;;;17.94;75.58;98106.59;4119203;28;20823;-83
2022/05/12 03:23:13;;;;;;;7.20;5.63;;;;;;;17.96;75.60;98109.91;4119014;28;20651;-83
2022/05/12 03:25:18;;;;;;;6.87;6.17;;;;;;;17.98;75.62;98107.94;4120009;28;21238;-83
2022/05/12 03:27:22;;;;;;;6.90;5.50;;;;;;;18.01;76.14;98108.50;4121735;28;20709;-82
2022/05/12 03:29:25;;;;;;;7.80;5.47;;;;;;;18.02;75.57;98115.41;4127176;28;20739;-83
2022/05/12 03:31:29;;;;;;;6.33;5.70;;;;;;;18.05;75.23;98115.13;4135402;28;20643;-83
2022/05/12 03:33:36;;;;;;;7.40;5.97;;;;;;;18.10;75.57;98123.44;4106137;28;20639;-83
2022/05/12 03:35:39;;;;;;;6.17;5.20;;;;;;;18.15;75.36;98123.03;4126762;28;21245;-83
2022/05/12 03:37:44;;;;;;;8.70;6.40;;;;;;;18.17;75.89;98119.25;4121229;28;20653;-83
2022/05/12 03:39:47;;;;;;;8.20;6.00;;;;;;;18.20;75.31;98133.97;4120160;28;20635;-83
2022/05/12 03:41:51;;;;;;;7.67;5.67;;;;;;;18.22;74.97;98126.72;4122806;28;20643;-83
2022/05/12 03:46:15;;;;;;;5.33;4.80;;;;;;;18.34;74.78;98133.44;4120852;28;20705;-83
2022/05/12 03:48:18;;;;;;;5.37;4.83;;;;;;;18.38;74.04;98137.44;4142972;28;20662;-83
2022/05/12 03:50:24;;;;;;;7.40;4.87;;;;;;;18.42;74.46;98140.44;4141422;28;20724;-83
2022/05/12 03:52:27;;;;;;;7.43;5.30;;;;;;;18.46;74.46;98140.97;4111768;28;20647;-83
2022/05/12 03:54:31;;;;;;;5.93;5.33;;;;;;;18.48;75.04;98149.59;4129586;28;20670;-83
2022/05/12 03:56:35;;;;;;;6.57;4.80;;;;;;;18.44;75.30;98146.41;4131098;28;20682;-83
2022/05/12 03:58:38;;;;;;;7.80;5.13;;;;;;;18.43;75.48;98163.25;4126040;28;20678;-83
2022/05/12 04:00:42;;;;;;;5.60;4.90;;;;;;;18.41;75.62;98159.91;4131910;28;20639;-83
2022/05/12 04:02:46;;;;;;;5.70;5.10;;;;;;;18.44;74.83;98169.34;4114489;28;20656;-83
2022/05/12 04:04:49;;;;;;;6.47;5.20;;;;;;;18.46;75.01;98162.94;4130057;28;21064;-83
2022/05/12 04:06:53;;;;;;;6.83;4.90;;;;;;;18.45;75.88;98158.63;4124591;28;20642;-83
2022/05/12 04:08:56;;;;;;;5.13;4.37;;;;;;;18.45;76.30;98169.19;4128202;28;20683;-83
2022/05/12 04:11:01;;;;;;;5.40;4.83;;;;;;;18.51;76.15;98170.41;4129553;28;21102;-83
2022/05/12 04:13:05;;;;;;;7.40;5.23;;;;;;;18.56;75.78;98163.69;4145725;28;20994;-84
2022/05/12 04:15:09;;;;;;;6.30;5.10;;;;;;;18.62;76.16;98175.47;4134162;28;20735;-83
2022/05/12 04:17:15;;;;;;;6.73;5.60;;;;;;;18.60;77.93;98180.91;4135062;28;20637;-83
2022/05/12 04:19:19;;;;;;;6.97;5.60;;;;;;;18.59;76.18;98188.97;4129305;28;21241;-83
2022/05/12 04:21:23;;;;;;;5.40;4.47;;;;;;;18.59;75.70;98189.81;4129431;28;20647;-83
2022/05/12 04:23:26;;;;;;;5.30;4.63;;;;;;;18.66;75.29;98196.16;4145519;28;21115;-83
2022/05/12 04:25:36;;;;;;;4.50;3.90;;;;;;;18.74;75.44;98198.84;4131781;28;20725;-83
2022/05/12 04:27:42;;;;;;;6.57;3.83;;;;;;;18.84;75.60;98204.91;4132327;28;20639;-83
2022/05/12 04:29:45;;;;;;;6.00;3.93;;;;;;;18.95;75.24;98208.13;4145424;28;20754;-83
2022/05/12 04:31:48;;;;;;;5.90;3.23;;;;;;;19.01;74.69;98202.25;4114875;28;20640;-83
2022/05/12 04:36:14;;;;;;;4.60;3.27;;;;;;;19.21;74.69;98216.13;4127554;28;20632;-83
2022/05/12 04:38:18;;;;;;;4.97;3.23;;;;;;;19.30;74.11;98215.19;4141951;28;20677;-83
2022/05/12 04:40:24;;;;;;;5.93;3.30;;;;;;;19.36;74.22;98222.50;4108245;28;20624;-83
2022/05/12 04:42:27;;;;;;;4.70;2.87;;;;;;;19.37;74.28;98227.66;4128425;28;20627;-83
2022/05/12 04:44:32;;;;;;;3.20;2.80;;;;;;;19.40;74.10;98225.50;4127333;28;20627;-83
2022/05/12 04:46:37;;;;;;;3.60;2.90;;;;;;;19.42;73.28;98228.00;4147277;28;20661;-83
2022/05/12 04:48:41;;;;;;;5.37;2.97;;;;;;;19.45;74.14;98232.97;4135678;28;20644;-83
2022/05/12 04:50:44;;;;;;;4.30;3.13;;;;;;;19.46;74.08;98230.19;4143770;28;20670;-83
2022/05/12 04:52:48;;;;;;;3.53;3.00;;;;;;;19.51;74.29;98237.66;4110513;28;21036;-83
2022/05/12 04:54:51;;;;;;;3.83;3.07;;;;;;;19.51;73.27;98233.19;4127086;28;20678;-83
2022/05/12 04:56:55;;;;;;;3.57;3.20;;;;;;;19.56;74.57;98245.94;4110841;28;24555;-83
2022/05/12 04:59:00;;;;;;;3.20;2.90;;;;;;;19.58;74.84;98239.50;4134230;28;20635;-83
2022/05/12 05:01:06;;;;;;;3.30;2.93;;;;;;;19.63;74.35;98245.16;4127521;28;20634;-83
2022/05/12 05:03:10;;;;;;;7.40;3.50;;;;;;;19.70;75.41;98250.69;4145359;28;20737;-83
2022/05/12 05:05:21;;;;;;;4.17;3.10;;;;;;;19.78;73.98;98253.38;4143499;28;21249;-83
2022/05/12 05:07:27;;;;;;;5.53;3.30;;;;;;;19.86;74.61;98264.88;4130115;28;20650;-83
2022/05/12 05:09:31;;;;;;;4.63;3.27;;;;;;;19.95;76.18;98269.19;4125967;28;20659;-83
2022/05/12 05:11:37;;;;;;;3.80;3.20;;;;;;;20.02;76.12;98273.69;4111957;28;20634;-83
2022/05/12 05:13:41;;;;;;;5.30;3.00;;;;;;;20.10;74.18;98276.41;4143467;28;20677;-83
2022/05/12 05:15:47;;;;;;;8.73;3.70;;;;;;;20.16;75.74;98270.47;4143336;28;20673;-83
2022/05/12 05:17:53;;;;;;;8.87;3.30;;;;;;;20.23;75.42;98275.97;4148403;28;20630;-82
2022/05/12 05:19:56;;;;;;;6.57;3.40;;;;;;;20.27;74.70;98282.63;4128655;28;21190;-83
2022/05/12 05:21:59;;;;;;;5.90;3.37;;;;;;;20.32;74.51;98278.47;4131525;28;21054;-83
2022/05/12 05:24:03;;;;;;;5.57;3.03;;;;;;;20.34;73.21;98285.28;4143256;28;20677;-83
2022/05/12 05:26:07;;;;;;;4.77;3.40;;;;;;;20.35;73.52;98289.56;4126894;28;20662;-85
2022/05/12 05:28:13;;;;;;;9.00;3.70;;;;;;;20.42;73.95;98301.22;4146760;28;20981;-85
2022/05/12 05:30:19;;;;;;;4.90;3.20;;;;;;;20.47;74.32;98298.06;4131827;28;20705;-85
2022/05/12 05:32:22;;;;;;;8.83;3.57;;;;;;;20.49;72.98;98299.59;4143035;28;20647;-86
2022/05/12 05:34:29;;;;;;;5.67;2.90;;;;;;;20.49;72.09;98306.69;4142113;28;20632;-86
2022/05/12 05:36:33;;;;;;;5.53;3.20;;;;;;;20.49;73.03;98307.53;4127916;28;21260;-85
2022/05/12 05:38:37;;;;;;;5.73;3.50;;;;;;;20.48;73.24;98305.88;4128230;28;20631;-86
2022/05/12 05:40:40;;;;;;;7.53;3.40;;;;;;;20.53;73.23;98311.50;4143503;28;20627;-86
2022/05/12 05:42:49;;;;;;;5.47;3.17;;;;;;;20.53;73.19;98310.69;4144875;28;20640;-86
2022/05/12 05:44:53;;;;;;;12.03;3.23;;;;;;;20.54;72.44;98321.13;4111868;28;20664;-86
2022/05/12 05:46:57;;;;;;;3.83;2.90;;;;;;;20.53;72.82;98327.41;4132966;28;20655;-86
2022/05/12 05:49:00;;;;;;;3.83;3.40;;;;;;;20.52;74.14;98328.44;4127521;28;21101;-85
2022/05/12 05:53:28;;;;;;;4.10;3.30;;;;;;;20.52;73.80;98339.03;4129684;28;20635;-86
2022/05/12 05:55:32;;;;;;;5.73;3.10;;;;;;;20.51;74.01;98339.19;4145030;28;20684;-86
2022/05/12 05:57:36;;;;;;;3.33;2.87;;;;;;;20.51;74.35;98352.44;4127494;28;20996;-85
2022/05/12 05:59:40;;;;;;;3.43;2.70;;;;;;;20.51;73.32;98353.25;4144374;28;20725;-85
2022/05/12 06:01:43;;;;;;;5.67;2.97;;;;;;;20.52;74.44;98352.28;4129099;28;20628;-86
2022/05/12 06:03:47;;;;;;;4.77;2.83;;;;;;;20.53;73.96;98355.75;4108498;28;20663;-85
2022/05/12 06:05:50;;;;;;;10.83;2.93;;;;;;;20.50;74.01;98351.59;4125295;28;20759;-86
2022/05/12 06:07:56;;;;;;;3.87;2.80;;;;;;;20.49;72.16;98357.91;4129976;28;20670;-85
2022/05/12 06:10:01;;;;;;;3.70;2.63;;;;;;;20.49;73.35;98363.22;4128068;28;20655;-86
2022/05/12 06:12:05;;;;;;;6.77;2.40;;;;;;;20.47;72.96;98372.28;4130482;28;20635;-85
2022/05/12 06:14:08;;;;;;;11.80;3.50;;;;;;;20.46;72.40;98373.28;4125595;28;20659;-86
2022/05/12 06:16:13;;;;;;;4.97;2.70;;;;;;;20.45;73.99;98383.06;4125035;28;21064;-85
2022/05/12 06:18:18;;;;;;;7.77;2.60;;;;;;;20.49;73.10;98365.84;4142535;28;20635;-85
2022/05/12 06:20:23;;;;;;;4.43;2.70;;;;;;;20.51;72.03;98373.66;4144796;28;21082;-85
2022/05/12 06:22:26;;;;;;;5.30;2.67;;;;;;;20.53;73.06;98375.13;4131032;28;20663;-85
2022/05/12 06:24:31;;;;;;;3.60;2.30;;;;;;;20.57;73.49;98368.53;4144605;28;21321;-85
2022/05/12 06:26:41;;;;;;;6.30;2.57;;;;;;;20.62;72.42;98376.81;4129422;28;21284;-85
2022/05/12 06:28:50;;;;;;;3.37;2.50;;;;;;;20.66;73.24;98386.13;4115155;28;20647;-85
2022/05/12 06:30:53;;;;;;;9.00;2.13;;;;;;;20.72;72.63;98382.03;4146926;28;20650;-85
2022/05/12 06:32:57;;;;;;;5.87;2.40;;;;;;;20.79;72.88;98391.84;4126441;28;20647;-84
2022/05/12 06:35:00;;;;;;;4.87;3.37;;;;;;;20.87;72.29;98386.59;4126435;28;20636;-84
2022/05/12 06:37:04;;;;;;;4.50;3.90;;;;;;;20.90;73.39;98386.25;4111454;28;20652;-85
2022/05/12 06:39:07;;;;;;;5.13;3.07;;;;;;;20.91;72.71;98385.25;4125879;28;21066;-86
2022/05/12 06:41:12;;;;;;;4.80;2.80;;;;;;;20.96;73.30;98399.69;4130087;28;20743;-85
2022/05/12 06:43:16;;;;;;;5.03;2.60;;;;;;;20.98;71.81;98399.53;4131049;28;21272;-85
2022/05/12 06:45:20;;;;;;;5.10;2.60;;;;;;;21.02;71.79;98400.88;4127249;28;20675;-85
2022/05/12 06:47:24;;;;;;;2.10;1.90;;;;;;;21.02;71.90;98406.19;4128513;28;20666;-84
2022/05/12 06:49:28;;;;;;;5.73;2.30;;;;;;;20.98;70.93;98403.00;4108564;28;20729;-84
2022/05/12 06:51:31;;;;;;;3.60;2.03;;;;;;;20.98;71.47;98400.38;4103170;28;20699;-85
2022/05/12 06:53:35;;;;;;;6.20;4.57;;;;;;;20.97;72.62;98408.47;4120180;28;20646;-85
2022/05/12 06:55:45;;;;;;;13.57;11.17;;;;;;;20.99;73.04;98412.66;4104338;28;20639;-85
2022/05/12 06:57:50;;;;;;;3.50;2.60;;;;;;;21.02;71.87;98406.19;4121979;28;20686;-85
2022/05/12 06:59:55;;;;;;;4.27;2.30;;;;;;;21.09;72.05;98410.66;4144923;28;20650;-84
2022/05/12 07:01:58;;;;;;;5.47;2.57;;;;;;;21.19;72.43;98414.03;4123480;28;21030;-85
2022/05/12 07:04:02;;;;;;;2.83;2.20;;;;;;;21.27;73.07;98414.03;4121054;28;20719;-85
2022/05/12 07:06:06;;;;;;;4.40;2.57;;;;;;;21.33;73.99;98410.72;4126854;28;20639;-85
2022/05/12 07:08:10;;;;;;;5.60;2.40;;;;;;;21.34;72.24;98415.88;4129607;28;20751;-86
2022/05/12 07:10:18;;;;;;;9.93;2.80;;;;;;;21.26;72.20;98419.50;4130329;28;20631;-85
2022/05/12 07:12:22;;;;;;;5.77;2.53;;;;;;;21.24;72.88;98418.84;4126572;28;20633;-86
2022/05/12 07:14:27;;;;;;;3.73;2.23;;;;;;;21.16;72.25;98419.66;4132835;28;20674;-85
2022/05/12 07:16:30;;;;;;;4.30;2.30;;;;;;;21.12;72.43;98425.44;4136132;28;20635;-86
2022/05/12 07:18:34;;;;;;;4.40;2.10;;;;;;;21.08;72.08;98427.59;4133185;28;20706;-85
2022/05/12 07:27:40;;;;;;;4.57;2.10;;;;;;;20.91;72.32;98439.16;4134394;28;20693;-85
2022/05/12 07:29:45;;;;;;;4.50;2.30;;;;;;;20.88;72.39;98438.63;4130199;28;21258;-85
2022/05/12 07:31:49;;;;;;;9.17;2.37;;;;;;;20.86;73.76;98446.72;4134139;28;20690;-85
2022/05/12 07:33:54;;;;;;;5.70;2.17;;;;;;;20.85;72.74;98438.94;4145841;28;20630;-86
2022/05/12 07:35:57;;;;;;;4.97;2.40;;;;;;;20.86;73.04;98433.47;4128536;28;20784;-85
2022/05/12 07:38:01;;;;;;;4.20;2.13;;;;;;;20.90;73.39;98444.63;4146466;28;20984;-85
2022/05/12 07:40:05;;;;;;;3.37;2.20;;;;;;;20.95;73.57;98452.91;4112735;28;20684;-85
2022/05/12 07:42:09;;;;;;;3.07;2.00;;;;;;;20.99;72.83;98454.28;4128946;28;20639;-86
2022/05/12 07:44:14;;;;;;;3.63;2.27;;;;;;;21.02;73.32;98454.78;4130939;28;20623;-85
2022/05/12 07:46:21;;;;;;;4.83;2.10;;;;;;;21.02;72.98;98456.59;4150285;28;20672;-85
2022/05/12 07:48:25;;;;;;;3.80;2.00;;;;;;;21.05;73.94;98459.75;4112423;28;21187;-85
2022/05/12 07:50:28;;;;;;;7.07;4.93;;;;;;;21.10;73.97;98457.44;4122944;28;20741;-85
2022/05/12 07:52:32;;;;;;;4.43;2.50;;;;;;;21.14;72.77;98458.78;4108846;28;20659;-85
2022/05/12 07:54:37;;;;;;;4.57;2.60;;;;;;;21.23;72.23;98464.94;4147557;28;20642;-85
2022/05/12 07:56:40;;;;;;;4.03;2.23;;;;;;;21.34;73.06;98466.31;4136621;28;20634;-85
2022/05/12 07:58:44;;;;;;;4.70;2.07;;;;;;;21.51;71.91;98462.72;4135984;28;20639;-85
2022/05/12 08:00:47;;;;;;;5.27;2.23;;;;;;;21.77;71.11;98466.09;4134022;28;20640;-85
2022/05/12 08:02:53;;;;;;;4.77;2.20;;;;;;;21.88;71.71;98466.59;4153256;28;20666;-86
2022/05/12 08:04:56;;;;;;;5.17;2.20;;;;;;;21.93;71.08;98471.41;4130818;28;20650;-85
2022/05/12 08:07:01;;;;;;;6.20;2.00;;;;;;;22.01;70.27;98471.41;4131627;28;20652;-84
2022/05/12 08:09:04;;;;;;;7.17;2.57;;;;;;;22.06;69.33;98469.09;4134203;28;20623;-85
2022/05/12 08:11:08;;;;;;;3.13;1.80;;;;;;;22.16;70.12;98470.59;4128528;28;21134;-87
2022/05/12 08:13:16;;;;;;;2.60;2.00;;;;;;;22.32;69.28;98483.91;4130058;28;20627;-86
2022/05/12 08:15:19;;;;;;;3.00;2.17;;;;;;;22.63;70.81;98469.72;4136158;28;20763;-86
2022/05/12 08:17:24;;;;;;;4.20;2.00;;;;;;;23.04;68.16;98474.75;4144736;28;20645;-88
2022/05/12 08:19:29;;;;;;;4.83;2.37;;;;;;;23.33;67.74;98470.47;4115018;28;21528;-86
2022/05/12 08:21:32;;;;;;;4.83;2.13;;;;;;;23.58;68.74;98474.66;4143106;28;21205;-86
2022/05/12 08:23:35;;;;;;;6.20;2.30;;;;;;;23.76;68.12;98470.72;4141078;28;21311;-86
2022/05/12 08:25:39;;;;;;;4.20;2.13;;;;;;;24.10;66.43;98481.81;4123816;28;20635;-86
2022/05/12 08:27:42;;;;;;;4.93;2.00;;;;;;;24.40;64.03;98479.06;4143755;28;20696;-86
2022/05/12 08:29:46;;;;;;;3.90;2.10;;;;;;;24.55;62.15;98469.25;4129960;28;20643;-86
2022/05/12 08:31:49;;;;;;;2.73;1.80;;;;;;;24.78;65.51;98478.03;4130055;28;21235;-86
2022/05/12 08:33:52;;;;;;;2.80;2.30;;;;;;;25.06;64.61;98481.72;4145655;28;20634;-87
2022/05/12 08:35:57;;;;;;;5.83;2.23;;;;;;;25.23;64.63;98473.34;4137143;28;20624;-86
2022/05/12 08:38:00;;;;;;;6.77;2.80;;;;;;;25.37;63.85;98475.97;4135127;28;20730;-86
2022/05/12 08:40:05;;;;;;;7.73;1.90;;;;;;;25.44;60.99;98471.53;4117506;28;21414;-86
2022/05/12 08:42:14;;;;;;;4.37;1.83;;;;;;;25.52;61.20;98471.44;4151241;28;20635;-86
2022/05/12 08:44:20;;;;;;;2.70;2.10;;;;;;;25.61;62.97;98472.97;4112542;28;20674;-87
2022/05/12 08:46:26;;;;;;;4.97;2.03;;;;;;;25.66;61.46;98473.25;4129391;28;21055;-86
2022/05/12 08:48:29;;;;;;;3.57;2.50;;;;;;;25.84;61.45;98487.03;4126203;28;21081;-86
2022/05/12 08:50:34;;;;;;;3.43;2.20;;;;;;;25.83;61.02;98493.38;4146488;28;20685;-86
2022/05/12 08:52:40;;;;;;;3.07;2.03;;;;;;;26.00;62.10;98489.47;4145444;28;20681;-86
2022/05/12 08:54:47;;;;;;;3.47;2.30;;;;;;;26.07;62.25;98493.00;4145676;28;20634;-86
2022/05/12 08:56:57;;;;;;;4.70;2.67;;;;;;;26.15;60.55;98505.25;4145931;28;20644;-86
2022/05/12 08:59:01;;;;;;;6.17;2.27;;;;;;;26.28;61.67;98497.38;4110788;28;20651;-86
2022/05/12 09:01:10;;;;;;;3.50;2.27;;;;;;;26.54;63.04;98504.78;4130925;28;20612;-86
2022/05/12 09:03:20;;;;;;;5.80;2.57;;;;;;;26.70;61.90;98508.00;4130983;28;20702;-86
2022/05/12 09:05:46;;;;;;;3.87;2.50;;;;;;;26.70;59.72;98508.00;4125467;28;21274;-86
2022/05/12 09:07:54;;;;;;;4.60;2.30;;;;;;;26.43;60.25;98510.66;4108861;28;20629;-86
2022/05/12 09:10:08;;;;;;;6.00;2.40;;;;;;;26.33;60.85;98505.66;4128648;28;20661;-86
2022/05/12 09:12:22;;;;;;;4.67;2.90;;;;;;;26.28;60.26;98502.75;4130058;28;20754;-87
2022/05/12 09:14:35;;;;;;;4.20;2.90;;;;;;;26.21;61.12;98504.47;4114969;28;20638;-86
2022/05/12 09:16:43;;;;;;;6.97;3.10;;;;;;;26.32;60.27;98497.81;4131769;28;20631;-86
2022/05/12 09:18:47;;;;;;;6.23;2.73;;;;;;;26.25;58.89;98500.41;4128299;28;20627;-86
2022/05/12 09:20:51;;;;;;;2.80;2.40;;;;;;;26.29;61.06;98501.69;4133188;28;20643;-86
2022/05/12 09:22:55;;;;;;;4.83;3.00;;;;;;;26.32;60.79;98501.31;4132541;28;20732;-86
2022/05/12 09:24:59;;;;;;;3.63;2.63;;;;;;;26.28;60.59;98500.06;4135478;28;21282;-86
2022/05/12 09:27:09;;;;;;;4.27;2.80;;;;;;;26.44;60.97;98494.41;4114723;28;20640;-86
2022/05/12 09:29:22;;;;;;;4.90;2.83;;;;;;;26.39;59.35;98491.50;4112137;28;20696;-86
2022/05/12 09:31:26;;;;;;;5.27;3.60;;;;;;;26.52;61.27;98498.81;4117104;28;21183;-86
2022/05/12 09:33:33;;;;;;;4.80;3.00;;;;;;;26.72;60.82;98493.41;4127993;28;20651;-87
2022/05/12 09:35:36;;;;;;;5.73;2.40;;;;;;;26.91;59.87;98497.28;4113800;28;21534;-87
2022/05/12 09:37:42;;;;;;;4.10;2.90;;;;;;;27.01;58.91;98493.22;4132954;28;20641;-86
2022/05/12 09:39:48;;;;;;;6.30;2.90;;;;;;;27.17;59.00;98491.03;4129397;28;20631;-86
2022/05/12 09:41:51;;;;;;;5.93;2.97;;;;;;;27.27;59.30;98488.00;4130488;28;20630;-86
2022/05/12 09:43:55;;;;;;;4.67;3.30;;;;;;;27.28;59.76;98489.66;4131529;28;20635;-87
2022/05/12 09:46:07;;;;;;;4.40;3.00;;;;;;;27.41;58.56;98490.56;4145054;28;21115;-87
2022/05/12 09:48:18;;;;;;;10.50;3.10;;;;;;;27.39;59.38;98489.91;4127627;28;20642;-89
2022/05/12 09:50:25;;;;;;;5.03;3.30;;;;;;;27.24;58.19;98499.97;4126231;28;20694;-88
2022/05/12 09:52:32;;;;;;;3.70;2.97;;;;;;;26.98;58.65;98496.28;4124488;28;21270;-87
2022/05/12 09:54:36;;;;;;;7.60;3.17;;;;;;;26.70;58.56;98495.47;4128147;28;20622;-87
2022/05/12 09:56:41;;;;;;;4.07;3.00;;;;;;;26.56;59.38;98493.69;4127267;28;20636;-87
2022/05/12 09:58:51;;;;;;;5.07;3.20;;;;;;;26.43;60.25;98489.25;4129876;28;20639;-87
2022/05/12 10:01:14;;;;;;;4.63;3.00;;;;;;;26.61;60.92;98477.03;4128544;28;20766;-88
2022/05/12 10:08:10;;;;;;;4.07;3.60;;;;;;;26.69;59.25;98477.75;4143345;28;21029;-87